Terminal Aerodrome Forecast
Issued by NWS Bismarck, ND

Home | Current Version | Previous Version | Graphics & Text | Print | Product List | Glossary On
Versions: 1 2 3 4 5 6 7 8 9 10 11 12 13 14 15 16 17 18 19 20 21
000
FTUS43 KBIS 140346 AAA
TAFISN
TAF AMD
KISN 140346Z 1404/1424 02008KT P6SM SCT060 BKN080
     FM141000 01007KT P6SM BKN015 OVC035
     FM141300 36007KT P6SM FEW025 SCT035
     FM141700 34008KT P6SM FEW080 FEW250
     FM142000 31011KT P6SM SKC=

USA.gov is the U.S. government's official web portal to all federal, state and local government web resources and services.